Time;durP1;ratioP1;P1;durP2;ratioP2;P2;SDS_P1;SDS_P2;PMS_P1;PMS_P2;Temp;Humidity;BMP_temperature;BMP_pressure;BME280_temperature;BME280_humidity;BME280_pressure;Samples;Min_cycle;Max_cycle;Signal;HPM_P1;HPM_P2
2022/07/21 00:04:48;;;;;;;0.52;0.28;;;;;;;18.61;100.00;101924.53;10495807;28;20036;-77
2022/07/21 00:09:50;;;;;;;0.77;0.47;;;;;;;18.90;100.00;101900.41;10494875;28;20052;-78
2022/07/21 00:14:51;;;;;;;1.08;0.55;;;;;;;18.63;100.00;101894.13;10494751;28;20540;-77
2022/07/21 00:19:53;;;;;;;0.10;0.10;;;;;;;18.54;100.00;101897.50;10500727;28;20068;-76
2022/07/21 00:24:55;;;;;;;1.48;0.93;;;;;;;18.74;100.00;101898.53;10496421;28;20415;-76
2022/07/21 00:29:57;;;;;;;0.70;0.47;;;;;;;18.54;100.00;101928.81;10500193;28;20361;-76
2022/07/21 00:34:59;;;;;;;0.77;0.50;;;;;;;18.81;100.00;101910.78;10500218;28;20699;-77
2022/07/21 00:40:03;;;;;;;0.55;0.45;;;;;;;18.92;100.00;101897.81;10499773;28;20128;-77
2022/07/21 00:45:06;;;;;;;0.28;0.28;;;;;;;18.74;100.00;101903.75;10491223;28;20495;-77
2022/07/21 00:50:12;;;;;;;0.40;0.40;;;;;;;18.64;100.00;101926.28;10496836;28;20051;-77
2022/07/21 00:55:20;;;;;;;0.28;0.28;;;;;;;18.72;100.00;101922.03;10495690;28;20395;-76
2022/07/21 01:00:26;;;;;;;1.55;0.50;;;;;;;18.65;100.00;101915.84;10489844;28;20037;-76
2022/07/21 01:05:28;;;;;;;0.10;0.10;;;;;;;18.77;100.00;101895.97;10499342;28;20048;-77
2022/07/21 01:10:32;;;;;;;0.10;0.10;;;;;;;18.78;100.00;101889.88;10490230;28;20033;-77
2022/07/21 01:15:34;;;;;;;0.75;0.45;;;;;;;18.50;100.00;101905.31;10470866;28;20047;-78
2022/07/21 01:20:41;;;;;;;0.77;0.68;;;;;;;18.53;100.00;101920.97;10491667;28;20044;-77
2022/07/21 01:25:52;;;;;;;0.70;0.70;;;;;;;18.86;100.00;101919.53;10492027;28;20486;-77
2022/07/21 01:30:53;;;;;;;1.02;0.65;;;;;;;18.85;100.00;101909.94;10488386;28;20048;-78
2022/07/21 01:35:55;;;;;;;0.75;0.40;;;;;;;18.85;100.00;101908.19;10494638;28;20037;-78
2022/07/21 01:46:19;;;;;;;1.13;0.50;;;;;;;18.87;100.00;101931.72;10498213;28;20074;-78
2022/07/21 01:51:21;;;;;;;0.82;0.70;;;;;;;18.92;100.00;101935.28;10486871;28;20041;-77
2022/07/21 01:56:24;;;;;;;0.75;0.63;;;;;;;18.93;100.00;101942.25;10475215;28;20036;-77
2022/07/21 02:01:28;;;;;;;2.75;1.65;;;;;;;18.91;100.00;101930.88;10487622;28;20036;-77
2022/07/21 02:06:30;;;;;;;2.15;0.95;;;;;;;18.89;100.00;101924.75;10478548;28;20129;-78
2022/07/21 02:11:32;;;;;;;1.80;1.23;;;;;;;18.85;100.00;101923.00;10495000;28;20132;-77
2022/07/21 02:16:34;;;;;;;2.00;0.80;;;;;;;18.87;100.00;101924.75;10480503;28;20506;-77
2022/07/21 02:21:36;;;;;;;0.88;0.63;;;;;;;18.91;100.00;101915.22;10495949;28;20048;-78
2022/07/21 02:26:38;;;;;;;1.65;1.05;;;;;;;18.98;100.00;101903.97;10491777;28;20127;-77
2022/07/21 02:31:39;;;;;;;2.05;1.70;;;;;;;18.87;100.00;101905.63;10460371;28;20051;-78
2022/07/21 02:36:41;;;;;;;1.77;1.55;;;;;;;18.85;100.00;101899.50;10490645;28;20040;-78
2022/07/21 02:41:43;;;;;;;0.80;0.57;;;;;;;18.88;100.00;101904.72;10488862;28;20525;-78
2022/07/21 02:46:44;;;;;;;7.18;0.88;;;;;;;18.79;100.00;101902.94;10497620;28;20495;-78
2022/07/21 02:51:46;;;;;;;1.02;0.88;;;;;;;18.66;100.00;101906.31;10484510;28;20047;-78
2022/07/21 02:56:48;;;;;;;2.05;1.70;;;;;;;18.62;100.00;101905.41;10491112;28;20045;-78
2022/07/21 03:01:49;;;;;;;3.20;1.35;;;;;;;18.56;100.00;101915.81;10498337;28;20048;-78
2022/07/21 03:06:51;;;;;;;1.80;1.63;;;;;;;18.57;100.00;101904.50;10500109;28;20049;-78
2022/07/21 03:11:52;;;;;;;3.67;1.05;;;;;;;18.50;100.00;101919.22;10493872;28;20040;-78
2022/07/21 03:16:54;;;;;;;19.38;1.95;;;;;;;18.63;100.00;101907.16;10492967;28;20045;-77
2022/07/21 03:21:56;;;;;;;0.95;0.88;;;;;;;18.53;100.00;101907.94;10497816;28;20395;-77
2022/07/21 03:26:57;;;;;;;2.03;1.25;;;;;;;18.42;100.00;101922.63;10485295;28;20052;-78
2022/07/21 03:32:07;;;;;;;2.30;1.25;;;;;;;18.60;100.00;101904.53;10495821;28;20048;-77
2022/07/21 03:37:09;;;;;;;3.13;1.83;;;;;;;18.44;100.00;101920.88;10495866;28;20587;-78
2022/07/21 03:42:10;;;;;;;2.45;1.55;;;;;;;18.35;100.00;101932.13;10487005;28;20053;-79
2022/07/21 03:47:12;;;;;;;2.42;1.77;;;;;;;18.32;100.00;101938.19;10506045;28;20523;-79
2022/07/21 03:52:14;;;;;;;3.28;1.75;;;;;;;18.17;100.00;101927.59;10473871;28;20041;-79
2022/07/21 03:57:16;;;;;;;3.55;2.22;;;;;;;18.26;100.00;101932.91;10497845;28;20492;-78
2022/07/21 04:02:18;;;;;;;2.47;1.40;;;;;;;18.21;100.00;101908.50;10471147;28;20116;-79
2022/07/21 04:07:20;;;;;;;2.70;2.05;;;;;;;18.23;100.00;101891.13;10472994;28;20098;-79
2022/07/21 04:12:27;;;;;;;1.85;1.38;;;;;;;18.20;100.00;101896.34;10500341;28;20047;-79
2022/07/21 04:17:29;;;;;;;2.88;1.38;;;;;;;18.10;100.00;101899.69;10474906;28;20048;-79
2022/07/21 04:22:31;;;;;;;3.28;1.27;;;;;;;18.15;100.00;101909.31;10500574;28;20037;-78
2022/07/21 04:27:37;;;;;;;4.68;1.65;;;;;;;18.34;100.00;101904.28;10500324;28;20060;-79
2022/07/21 04:32:39;;;;;;;2.20;1.20;;;;;;;18.22;100.00;101905.94;10494175;28;20045;-79
2022/07/21 04:37:40;;;;;;;1.27;1.17;;;;;;;18.25;100.00;101910.28;10500136;28;20052;-79
2022/07/21 04:42:43;;;;;;;2.88;2.00;;;;;;;18.12;100.00;101900.59;10500234;28;20087;-79
2022/07/21 04:47:53;;;;;;;1.48;1.23;;;;;;;18.34;100.00;101886.91;10481421;28;20040;-79
2022/07/21 04:52:56;;;;;;;2.30;0.88;;;;;;;18.22;100.00;101879.84;10495218;28;20515;-79
2022/07/21 04:57:58;;;;;;;5.93;1.50;;;;;;;18.43;100.00;101861.78;10499259;28;20036;-79
2022/07/21 05:03:00;;;;;;;2.83;1.38;;;;;;;18.49;100.00;101841.81;10479395;28;20109;-78
2022/07/21 05:08:02;;;;;;;2.50;1.30;;;;;;;18.61;100.00;101840.16;10492298;28;20088;-78
2022/07/21 05:13:05;;;;;;;2.00;1.33;;;;;;;18.51;100.00;101865.28;10476753;28;20048;-79
2022/07/21 05:18:08;;;;;;;2.15;1.25;;;;;;;18.83;100.00;101856.84;10480130;28;20052;-79
2022/07/21 05:23:10;;;;;;;4.18;1.70;;;;;;;19.21;100.00;101826.63;10496052;28;20048;-78
2022/07/21 05:28:12;;;;;;;1.15;0.90;;;;;;;19.27;100.00;101817.06;10498344;28;20483;-78
2022/07/21 05:33:13;;;;;;;3.95;2.03;;;;;;;18.93;100.00;101813.41;10496029;28;20524;-79
2022/07/21 05:38:15;;;;;;;3.28;1.73;;;;;;;19.22;100.00;101813.56;10498062;28;20040;-78
2022/07/21 05:43:17;;;;;;;2.35;1.60;;;;;;;18.96;100.00;101806.47;10498280;28;20499;-79
2022/07/21 05:48:18;;;;;;;3.72;1.75;;;;;;;18.90;100.00;101823.81;10486979;28;20063;-79
2022/07/21 05:53:20;;;;;;;4.63;2.05;;;;;;;18.67;100.00;101851.50;10488968;28;20044;-78
2022/07/21 05:58:25;;;;;;;3.95;1.92;;;;;;;19.02;100.00;101848.28;10497289;28;20044;-79
2022/07/21 06:03:27;;;;;;;3.42;1.98;;;;;;;19.10;100.00;101813.53;10471021;28;20052;-78
2022/07/21 06:08:28;;;;;;;3.30;2.10;;;;;;;19.07;100.00;101787.38;10476638;28;20041;-78
2022/07/21 06:13:30;;;;;;;2.70;1.95;;;;;;;19.34;100.00;101777.03;10477338;28;20043;-78
2022/07/21 06:18:32;;;;;;;1.80;1.42;;;;;;;19.52;100.00;101759.69;10497341;28;20045;-77
2022/07/21 06:23:34;;;;;;;3.45;1.85;;;;;;;19.42;100.00;101750.06;10478590;28;20480;-77
2022/07/21 06:28:36;;;;;;;4.53;2.75;;;;;;;19.41;100.00;101735.25;10497078;28;20032;-78
2022/07/21 06:33:38;;;;;;;3.90;2.10;;;;;;;19.40;100.00;101733.53;10496635;28;20052;-78
2022/07/21 06:38:39;;;;;;;4.75;2.33;;;;;;;19.48;100.00;101737.00;10493798;28;20044;-77
2022/07/21 06:43:41;;;;;;;4.25;1.77;;;;;;;19.33;100.00;101743.94;10491760;28;20044;-78
2022/07/21 06:48:42;;;;;;;2.95;1.98;;;;;;;19.23;100.00;101763.06;10485292;28;20060;-78
2022/07/21 06:53:44;;;;;;;4.63;2.33;;;;;;;19.11;100.00;101773.47;10493028;28;20044;-77
2022/07/21 06:58:48;;;;;;;5.07;2.72;;;;;;;19.09;100.00;101781.28;10491423;28;20079;-77
2022/07/21 07:03:51;;;;;;;8.43;1.95;;;;;;;19.17;100.00;101800.50;10492326;28;20141;-77
2022/07/21 07:08:53;;;;;;;2.53;1.80;;;;;;;19.20;100.00;101799.63;10502540;28;20052;-77
2022/07/21 07:13:55;;;;;;;3.35;2.35;;;;;;;19.26;100.00;101799.66;10478338;28;20046;-77
2022/07/21 07:19:09;;;;;;;1.80;1.45;;;;;;;19.40;100.00;101791.00;10493562;28;20041;-77
2022/07/21 07:24:10;;;;;;;4.28;2.17;;;;;;;19.42;100.00;101792.75;10497833;28;20048;-77
2022/07/21 07:29:12;;;;;;;4.80;2.55;;;;;;;19.33;100.00;101798.78;10495943;28;20496;-78
2022/07/21 07:34:14;;;;;;;3.13;1.88;;;;;;;19.28;100.00;101789.22;10496603;28;20052;-77
2022/07/21 07:39:16;;;;;;;4.07;2.67;;;;;;;19.25;100.00;101786.59;10495920;28;20476;-77
2022/07/21 07:44:18;;;;;;;4.38;2.97;;;;;;;19.45;100.00;101773.59;10479821;28;20503;-77
2022/07/21 07:49:20;;;;;;;4.82;2.88;;;;;;;19.65;100.00;101745.75;10488391;28;20106;-78
2022/07/21 07:54:21;;;;;;;2.55;1.70;;;;;;;19.84;100.00;101743.22;10497811;28;20048;-77
2022/07/21 07:59:23;;;;;;;4.55;2.60;;;;;;;20.14;100.00;101733.63;10498412;28;20048;-77
2022/07/21 08:04:24;;;;;;;2.45;2.25;;;;;;;19.97;100.00;101731.88;10497548;28;20036;-78
2022/07/21 08:09:26;;;;;;;3.40;1.83;;;;;;;20.06;100.00;101740.59;10491598;28;20094;-76
2022/07/21 08:14:28;;;;;;;2.75;1.60;;;;;;;20.37;100.00;101735.31;10487858;28;20487;-77
2022/07/21 08:19:29;;;;;;;2.72;1.58;;;;;;;20.41;100.00;101726.59;10470723;28;20040;-77
2022/07/21 08:24:31;;;;;;;3.35;2.63;;;;;;;20.19;100.00;101724.00;10483846;28;20040;-77
2022/07/21 08:29:33;;;;;;;4.68;2.80;;;;;;;20.19;100.00;101731.88;10492926;28;20048;-78
2022/07/21 08:34:36;;;;;;;3.30;2.13;;;;;;;20.28;100.00;101724.00;10484408;28;20037;-77
2022/07/21 08:39:38;;;;;;;3.55;1.95;;;;;;;20.53;100.00;101730.94;10486958;28;20044;-76
2022/07/21 08:44:39;;;;;;;5.93;2.67;;;;;;;20.58;100.00;101735.28;10488723;28;20041;-77
2022/07/21 08:49:46;;;;;;;3.30;1.95;;;;;;;20.65;100.00;101730.03;10487144;28;20037;-76
2022/07/21 08:54:48;;;;;;;5.35;2.95;;;;;;;21.14;100.00;101718.53;10489375;28;20040;-76
2022/07/21 08:59:50;;;;;;;2.40;1.73;;;;;;;21.38;100.00;101718.34;10494496;28;20131;-78
2022/07/21 09:04:52;;;;;;;2.65;1.83;;;;;;;20.71;100.00;101730.00;10495174;28;20399;-78
2022/07/21 09:09:59;;;;;;;2.33;1.92;;;;;;;20.63;100.00;101723.91;10495724;28;20411;-77
2022/07/21 09:15:16;;;;;;;1.55;1.15;;;;;;;20.82;100.00;101706.44;10495532;28;20115;-77
2022/07/21 09:20:22;;;;;;;3.97;1.95;;;;;;;21.28;100.00;101705.31;10495132;28;20156;-78
2022/07/21 09:25:54;;;;;;;4.13;1.70;;;;;;;21.03;100.00;101715.97;10491125;28;20420;-77
2022/07/21 09:31:03;;;;;;;2.17;1.40;;;;;;;21.11;100.00;101714.13;10466543;28;20048;-77
2022/07/21 09:36:18;;;;;;;2.78;1.58;;;;;;;21.06;100.00;101727.28;10481701;28;20086;-77
2022/07/21 09:41:23;;;;;;;1.83;1.15;;;;;;;20.69;100.00;101731.75;10490264;28;20053;-77
2022/07/21 09:46:30;;;;;;;1.58;1.20;;;;;;;20.61;100.00;101735.25;10498759;28;20042;-77
2022/07/21 09:51:34;;;;;;;3.28;1.83;;;;;;;20.40;100.00;101737.94;10490135;28;20138;-76
2022/07/21 09:56:38;;;;;;;2.08;1.33;;;;;;;20.40;100.00;101751.00;10499092;28;20412;-77
2022/07/21 10:01:40;;;;;;;2.65;1.83;;;;;;;20.49;100.00;101751.00;10487274;28;20139;-76
2022/07/21 10:06:45;;;;;;;15.30;2.72;;;;;;;20.43;100.00;101745.78;10496630;28;20037;-76
2022/07/21 10:11:47;;;;;;;4.65;1.10;;;;;;;20.42;100.00;101736.19;10489133;28;20055;-75
2022/07/21 10:16:54;;;;;;;2.42;1.30;;;;;;;20.58;100.00;101745.75;10492147;28;20115;-76
2022/07/21 10:22:28;;;;;;;5.60;1.63;;;;;;;20.67;100.00;101738.72;10490220;28;20056;-76
2022/07/21 10:27:30;;;;;;;2.15;1.63;;;;;;;20.50;100.00;101744.91;10430736;28;20055;-76
2022/07/21 10:32:52;;;;;;;2.80;1.77;;;;;;;20.36;100.00;101744.06;10487286;28;20040;-76
2022/07/21 10:37:53;;;;;;;3.53;2.13;;;;;;;20.28;100.00;101754.53;10470298;28;20044;-76
2022/07/21 10:42:59;;;;;;;2.28;1.58;;;;;;;19.85;100.00;101768.47;10506780;28;20123;-76
2022/07/21 10:48:04;;;;;;;0.45;0.40;;;;;;;19.88;100.00;101789.41;10498068;28;20039;-76
2022/07/21 10:53:15;;;;;;;4.43;1.13;;;;;;;19.88;100.00;101792.00;10510677;28;20052;-76
2022/07/21 10:58:25;;;;;;;2.63;1.42;;;;;;;19.90;100.00;101792.00;10504236;28;20044;-76
2022/07/21 11:03:38;;;;;;;3.10;1.25;;;;;;;19.92;100.00;101796.34;10497223;28;20044;-75
2022/07/21 11:08:46;;;;;;;1.77;1.08;;;;;;;20.11;100.00;101791.16;10497785;28;20052;-76
2022/07/21 11:14:09;;;;;;;1.10;0.77;;;;;;;20.05;100.00;101791.16;10502433;28;20041;-76
2022/07/21 11:19:29;;;;;;;1.88;0.30;;;;;;;19.83;100.00;101788.50;10505320;28;20055;-76
2022/07/21 11:24:32;;;;;;;0.40;0.30;;;;;;;19.71;100.00;101796.28;10502391;28;20079;-76
2022/07/21 11:29:35;;;;;;;0.30;0.20;;;;;;;19.63;100.00;101807.59;10494759;28;20518;-75
2022/07/21 11:34:51;;;;;;;1.38;0.77;;;;;;;19.70;100.00;101810.22;10500290;28;20133;-76
2022/07/21 11:39:53;;;;;;;0.45;0.28;;;;;;;19.65;100.00;101813.72;10498013;28;20090;-75
2022/07/21 11:44:54;;;;;;;0.60;0.32;;;;;;;19.51;100.00;101825.88;10502092;28;20076;-76
2022/07/21 11:50:03;;;;;;;0.20;0.20;;;;;;;19.57;100.00;101825.03;10499256;28;20079;-77
2022/07/21 11:55:08;;;;;;;0.73;0.57;;;;;;;19.55;100.00;101827.63;10505125;28;20055;-77
2022/07/21 12:00:10;;;;;;;1.58;0.98;;;;;;;19.53;100.00;101838.94;10519822;28;20041;-77
2022/07/21 12:05:15;;;;;;;0.22;0.20;;;;;;;19.63;100.00;101845.97;10517381;28;20119;-78
2022/07/21 12:10:29;;;;;;;1.60;0.43;;;;;;;19.74;100.00;101859.06;10510882;28;20055;-77
2022/07/21 12:15:36;;;;;;;0.38;0.38;;;;;;;19.62;100.00;101847.69;10490551;28;20045;-77
2022/07/21 12:20:42;;;;;;;0.77;0.20;;;;;;;19.85;100.00;101844.28;10491109;28;20075;-78
2022/07/21 12:25:43;;;;;;;1.08;0.73;;;;;;;19.95;100.00;101840.84;10493226;28;20040;-78
2022/07/21 12:30:50;;;;;;;0.73;0.68;;;;;;;19.48;100.00;101841.53;10494997;28;20127;-79
2022/07/21 12:36:03;;;;;;;0.95;0.30;;;;;;;19.94;100.00;101852.16;10495034;28;20127;-78
2022/07/21 12:41:06;;;;;;;0.52;0.50;;;;;;;20.11;100.00;101844.34;10489842;28;20045;-79
2022/07/21 12:46:31;;;;;;;2.20;1.50;;;;;;;20.22;100.00;101849.56;10490236;28;20639;-79
2022/07/21 12:51:33;;;;;;;1.00;0.90;;;;;;;20.10;100.00;101846.97;10477249;28;20037;-79
2022/07/21 12:56:36;;;;;;;1.13;0.98;;;;;;;20.23;100.00;101833.00;10478933;28;20044;-79
2022/07/21 13:01:38;;;;;;;1.10;0.70;;;;;;;19.82;100.00;101832.06;10466624;28;20124;-79
2022/07/21 13:06:40;;;;;;;1.48;0.73;;;;;;;19.79;100.00;101836.41;10520621;28;20044;-78
2022/07/21 13:11:42;;;;;;;1.55;1.02;;;;;;;19.58;100.00;101848.56;10483933;28;20048;-78
2022/07/21 13:16:43;;;;;;;2.95;0.88;;;;;;;19.54;100.00;101854.66;10484747;28;20044;-78
2022/07/21 13:21:45;;;;;;;0.88;0.65;;;;;;;19.61;100.00;101852.91;10492495;28;20040;-78
2022/07/21 13:26:47;;;;;;;2.72;1.30;;;;;;;19.56;100.00;101838.97;10495257;28;20524;-78
2022/07/21 13:31:50;;;;;;;0.98;0.77;;;;;;;19.65;100.00;101834.63;10487489;28;20043;-78
2022/07/21 13:36:53;;;;;;;1.35;0.95;;;;;;;19.61;100.00;101832.88;10474540;28;20040;-78
2022/07/21 13:41:55;;;;;;;1.48;1.20;;;;;;;19.68;100.00;101848.59;10492821;28;20102;-78
2022/07/21 13:47:17;;;;;;;1.10;0.95;;;;;;;19.81;100.00;101835.53;10491160;28;20056;-78
2022/07/21 13:52:19;;;;;;;1.55;0.95;;;;;;;19.64;100.00;101842.47;10475294;28;20454;-77
2022/07/21 13:57:25;;;;;;;4.10;1.17;;;;;;;19.82;100.00;101837.28;10489388;28;20041;-78
2022/07/21 14:02:27;;;;;;;0.93;0.75;;;;;;;19.80;100.00;101825.06;10485152;28;20045;-77
2022/07/21 14:07:31;;;;;;;1.17;0.63;;;;;;;19.86;100.00;101827.72;10482369;28;20481;-78
2022/07/21 14:12:33;;;;;;;1.23;0.77;;;;;;;20.01;100.00;101831.25;10484983;28;20040;-79
2022/07/21 14:17:42;;;;;;;1.10;0.60;;;;;;;20.30;100.00;101820.81;10485239;28;20116;-79
2022/07/21 14:22:44;;;;;;;1.55;0.88;;;;;;;19.89;100.00;101817.28;10487453;28;20403;-79
2022/07/21 14:27:48;;;;;;;0.75;0.30;;;;;;;19.81;100.00;101829.44;10487227;28;20045;-78
2022/07/21 14:32:50;;;;;;;0.47;0.47;;;;;;;19.77;100.00;101827.72;10488090;28;20131;-79
2022/07/21 14:37:52;;;;;;;0.65;0.47;;;;;;;19.68;100.00;101833.75;10478571;28;20044;-78
2022/07/21 14:42:54;;;;;;;0.60;0.60;;;;;;;19.66;100.00;101822.41;10491805;28;20091;-78
2022/07/21 14:47:57;;;;;;;0.73;0.70;;;;;;;19.86;100.00;101816.41;10493395;28;20041;-78
2022/07/21 14:52:58;;;;;;;0.68;0.43;;;;;;;20.14;100.00;101825.19;10493009;28;20044;-78
2022/07/21 14:58:00;;;;;;;0.63;0.63;;;;;;;20.22;100.00;101812.94;10488014;28;20054;-78
2022/07/21 15:03:02;;;;;;;0.40;0.40;;;;;;;20.05;100.00;101818.19;10491711;28;20044;-78
2022/07/21 15:08:04;;;;;;;0.80;0.63;;;;;;;19.94;100.00;101819.91;10484236;28;20591;-78
2022/07/21 15:13:16;;;;;;;0.40;0.40;;;;;;;20.13;100.00;101826.03;10488735;28;20040;-77
2022/07/21 15:18:19;;;;;;;1.15;0.82;;;;;;;20.19;100.00;101820.81;10493380;28;20041;-77
2022/07/21 15:23:21;;;;;;;0.30;0.22;;;;;;;19.99;100.00;101822.53;10471093;28;20098;-77
2022/07/21 15:28:23;;;;;;;1.45;0.73;;;;;;;19.90;100.00;101829.50;10490962;28;20451;-78
2022/07/21 15:33:24;;;;;;;0.73;0.43;;;;;;;19.73;100.00;101836.41;10489888;28;20044;-78
2022/07/21 15:38:26;;;;;;;0.68;0.45;;;;;;;19.77;100.00;101832.94;10510189;28;20029;-78
2022/07/21 15:43:29;;;;;;;0.93;0.70;;;;;;;19.77;100.00;101835.56;10500176;28;20045;-78
2022/07/21 15:48:31;;;;;;;0.93;0.40;;;;;;;19.52;100.00;101843.31;10491580;28;20051;-78
2022/07/21 15:53:33;;;;;;;0.68;0.55;;;;;;;19.21;100.00;101852.75;10493079;28;20052;-78
2022/07/21 15:59:33;;;;;;;0.28;0.28;;;;;;;19.41;100.00;101860.66;10491990;28;20469;-78
2022/07/21 16:03:58;;;;;;;0.13;0.13;;;;;;;19.33;100.00;101858.88;10500403;28;20407;-78
2022/07/21 16:09:00;;;;;;;0.35;0.28;;;;;;;19.24;100.00;101866.72;10484610;28;20106;-78
2022/07/21 16:14:02;;;;;;;0.65;0.25;;;;;;;19.53;100.00;101860.75;10483143;28;20107;-78
2022/07/21 16:19:14;;;;;;;0.57;0.22;;;;;;;19.32;100.00;101862.38;10496580;28;20485;-79
2022/07/21 16:24:16;;;;;;;0.10;0.10;;;;;;;19.41;100.00;101863.28;10496078;28;20051;-79
2022/07/21 16:29:18;;;;;;;7.63;0.85;;;;;;;19.51;100.00;101867.69;10497113;28;20051;-79
2022/07/21 16:34:20;;;;;;;1.02;0.60;;;;;;;19.60;100.00;101859.91;10488853;28;20078;-79
2022/07/21 16:39:22;;;;;;;0.30;0.20;;;;;;;19.51;100.00;101867.69;10470358;28;20561;-79
2022/07/21 16:44:25;;;;;;;0.60;0.38;;;;;;;19.32;100.00;101872.81;10488923;28;20066;-79
2022/07/21 16:49:27;;;;;;;0.63;0.40;;;;;;;19.38;100.00;101878.97;10480487;28;20052;-80
2022/07/21 16:54:30;;;;;;;0.17;0.17;;;;;;;19.21;100.00;101884.97;10497755;28;20131;-80
2022/07/21 16:59:32;;;;;;;0.25;0.25;;;;;;;19.28;100.00;101891.97;10499358;28;20044;-79
2022/07/21 17:04:34;;;;;;;1.20;0.28;;;;;;;19.33;100.00;101885.03;10489023;28;20043;-79
2022/07/21 17:09:36;;;;;;;0.13;0.13;;;;;;;19.40;100.00;101905.97;10487555;28;20041;-80
2022/07/21 17:14:39;;;;;;;0.10;0.10;;;;;;;19.40;100.00;101900.75;10482350;28;20053;-80
2022/07/21 17:19:41;;;;;;;0.15;0.15;;;;;;;19.32;100.00;101904.16;10489488;28;20376;-81
2022/07/21 17:24:42;;;;;;;0.10;0.10;;;;;;;19.38;100.00;101907.69;10483092;28;20048;-81
2022/07/21 17:29:44;;;;;;;0.22;0.22;;;;;;;19.16;100.00;101903.22;10489625;28;20044;-80
2022/07/21 17:34:47;;;;;;;0.35;0.20;;;;;;;19.03;100.00;101967.56;10487067;28;20075;-79
2022/07/21 17:39:49;;;;;;;0.25;0.10;;;;;;;19.17;100.00;101966.81;10486027;28;20048;-79
2022/07/21 17:44:51;;;;;;;1.02;0.28;;;;;;;19.29;100.00;101972.09;10486744;28;20047;-79
2022/07/21 17:49:54;;;;;;;0.28;0.20;;;;;;;19.45;100.00;101966.97;10484097;28;20507;-80
2022/07/21 17:54:56;;;;;;;0.20;0.10;;;;;;;19.36;100.00;101969.53;10487331;28;20067;-80
2022/07/21 17:59:58;;;;;;;0.38;0.32;;;;;;;19.41;100.00;101971.31;10486082;28;20407;-80
2022/07/21 18:05:00;;;;;;;0.82;0.65;;;;;;;19.21;100.00;101984.22;10490908;28;20049;-80
2022/07/21 18:10:03;;;;;;;1.08;0.60;;;;;;;19.40;100.00;101979.16;10487120;28;20086;-80
2022/07/21 18:15:06;;;;;;;0.90;0.50;;;;;;;19.14;100.00;101988.53;10489445;28;20040;-80
2022/07/21 18:20:08;;;;;;;0.30;0.30;;;;;;;19.09;100.00;102015.50;10490726;28;20048;-81
2022/07/21 18:25:10;;;;;;;0.65;0.32;;;;;;;18.98;100.00;102025.84;10488470;28;20051;-81
2022/07/21 18:30:13;;;;;;;0.30;0.30;;;;;;;18.95;100.00;102029.28;10487945;28;20076;-81
2022/07/21 18:35:15;;;;;;;0.47;0.40;;;;;;;19.10;100.00;102027.69;10488927;28;20123;-81
2022/07/21 18:40:16;;;;;;;0.15;0.10;;;;;;;18.94;100.00;102035.41;10481325;28;20055;-81
2022/07/21 18:45:18;;;;;;;0.35;0.28;;;;;;;18.91;100.00;102037.94;10483313;28;20036;-80
2022/07/21 18:50:21;;;;;;;0.40;0.20;;;;;;;18.44;100.00;102069.63;10465230;28;20507;-79
2022/07/21 18:55:23;;;;;;;0.10;0.10;;;;;;;18.03;100.00;102076.94;10492356;28;20036;-81
2022/07/21 19:00:30;;;;;;;0.20;0.20;;;;;;;18.03;100.00;102086.47;10483047;28;20044;-81
2022/07/21 19:05:35;;;;;;;0.00;0.00;;;;;;;17.91;100.00;102089.75;10488997;28;20033;-80
2022/07/21 19:10:37;;;;;;;0.00;0.00;;;;;;;17.79;100.00;102093.09;10481893;28;20048;-80
2022/07/21 19:15:41;;;;;;;0.00;0.00;;;;;;;17.63;100.00;102115.41;10475604;28;20411;-81
2022/07/21 19:20:43;;;;;;;0.10;0.10;;;;;;;17.52;100.00;102114.38;10480740;28;20059;-81
2022/07/21 19:25:50;;;;;;;0.10;0.00;;;;;;;17.43;100.00;102125.50;10506620;28;20073;-81
2022/07/21 19:30:55;;;;;;;0.73;0.05;;;;;;;17.31;100.00;102135.72;10493033;28;20051;-80
2022/07/21 19:36:00;;;;;;;0.30;0.10;;;;;;;17.28;100.00;102141.75;10495074;28;20048;-81
2022/07/21 19:41:02;;;;;;;0.00;0.00;;;;;;;17.42;100.00;102142.88;10535008;28;20410;-81
2022/07/21 19:46:04;;;;;;;0.00;0.00;;;;;;;17.29;100.00;102153.94;10514653;28;20484;-80
2022/07/21 19:51:06;;;;;;;1.55;0.20;;;;;;;17.18;100.00;102155.44;10494899;28;20127;-79
2022/07/21 19:56:08;;;;;;;0.05;0.00;;;;;;;17.17;100.00;102170.22;10496359;28;20419;-81
2022/07/21 20:01:11;;;;;;;0.00;0.00;;;;;;;17.16;100.00;102172.78;10492518;28;20053;-80
2022/07/21 20:06:17;;;;;;;0.10;0.10;;;;;;;17.15;100.00;102171.03;10488110;28;20048;-80
2022/07/21 20:11:19;;;;;;;0.00;0.00;;;;;;;17.13;100.00;102163.16;10495224;28;20412;-80
2022/07/21 20:16:23;;;;;;;2.92;0.30;;;;;;;17.10;100.00;102164.00;10505623;28;20441;-81
2022/07/21 20:21:25;;;;;;;0.20;0.13;;;;;;;17.00;100.00;102161.19;10501701;28;20040;-81
2022/07/21 20:26:29;;;;;;;0.00;0.00;;;;;;;16.97;100.00;102172.41;10511419;28;20469;-81
2022/07/21 20:31:39;;;;;;;2.45;0.13;;;;;;;16.96;100.00;102168.06;10502800;28;20085;-81
2022/07/21 20:36:41;;;;;;;0.03;0.00;;;;;;;16.87;100.00;102160.03;10528021;28;20040;-80
2022/07/21 20:41:48;;;;;;;0.30;0.20;;;;;;;16.83;100.00;102160.81;10505899;28;20177;-80
2022/07/21 20:46:52;;;;;;;0.00;0.00;;;;;;;16.84;100.00;102165.19;10494258;28;20086;-81
2022/07/21 20:51:54;;;;;;;1.65;0.08;;;;;;;16.92;100.00;102163.63;10498957;28;20052;-81
2022/07/21 20:56:59;;;;;;;0.10;0.03;;;;;;;16.85;100.00;102160.00;10492746;28;20159;-81
2022/07/21 21:02:16;;;;;;;0.10;0.10;;;;;;;16.94;100.00;102164.56;10494385;28;20046;-81
2022/07/21 21:07:18;;;;;;;0.00;0.00;;;;;;;16.91;100.00;102161.88;10511537;28;20040;-81
2022/07/21 21:12:20;;;;;;;0.03;0.03;;;;;;;16.86;100.00;102171.31;10492624;28;20052;-81
2022/07/21 21:17:26;;;;;;;0.00;0.00;;;;;;;16.81;100.00;102187.69;10485534;28;20040;-81
2022/07/21 21:22:35;;;;;;;0.00;0.00;;;;;;;16.80;100.00;102185.06;10486943;28;20040;-81
2022/07/21 21:27:41;;;;;;;0.03;0.00;;;;;;;16.67;100.00;102196.94;10487811;28;20138;-81
2022/07/21 21:32:43;;;;;;;0.25;0.00;;;;;;;16.73;100.00;102199.66;10487714;28;20045;-81
2022/07/21 21:37:44;;;;;;;0.00;0.00;;;;;;;16.88;100.00;102187.81;10487860;28;20068;-81
2022/07/21 21:42:46;;;;;;;0.00;0.00;;;;;;;16.77;100.00;102204.09;10488429;28;20487;-82
2022/07/21 21:47:48;;;;;;;0.00;0.00;;;;;;;16.71;100.00;102209.19;10466757;28;20067;-82
2022/07/21 21:52:50;;;;;;;0.32;0.20;;;;;;;16.56;100.00;102201.06;10493151;28;20486;-81
2022/07/21 21:57:52;;;;;;;0.88;0.25;;;;;;;16.62;100.00;102201.19;10478766;28;20044;-82
2022/07/21 22:02:53;;;;;;;0.00;0.00;;;;;;;16.60;100.00;102198.56;10492697;28;20041;-82
2022/07/21 22:07:55;;;;;;;0.10;0.10;;;;;;;16.57;100.00;102197.63;10488111;28;20412;-82
2022/07/21 22:12:57;;;;;;;0.00;0.00;;;;;;;16.49;100.00;102203.50;10493371;28;20064;-82
2022/07/21 22:17:59;;;;;;;0.13;0.03;;;;;;;16.47;100.00;102196.50;10481008;28;20257;-82
2022/07/21 22:23:01;;;;;;;0.03;0.03;;;;;;;16.53;100.00;102201.84;10500985;28;20045;-82
2022/07/21 22:28:03;;;;;;;0.22;0.10;;;;;;;16.62;100.00;102201.19;10499161;28;20036;-81
2022/07/21 22:33:05;;;;;;;0.10;0.10;;;;;;;16.43;100.00;102215.50;10498361;28;20044;-81
2022/07/21 22:38:07;;;;;;;0.00;0.00;;;;;;;16.47;100.00;102217.31;10508196;28;20410;-82
2022/07/21 22:43:08;;;;;;;0.60;0.13;;;;;;;16.48;100.00;102214.78;10500023;28;20051;-82
2022/07/21 22:48:10;;;;;;;0.00;0.00;;;;;;;16.40;100.00;102220.63;10498407;28;20044;-82
2022/07/21 22:53:16;;;;;;;0.00;0.00;;;;;;;16.43;100.00;102216.38;10504926;28;20059;-82
2022/07/21 22:58:18;;;;;;;0.00;0.00;;;;;;;16.54;100.00;102213.13;10502705;28;20048;-82
2022/07/21 23:03:19;;;;;;;0.25;0.25;;;;;;;16.46;100.00;102216.44;10502837;28;20056;-81
2022/07/21 23:08:21;;;;;;;0.28;0.25;;;;;;;16.45;100.00;102219.88;10486286;28;20384;-82